sensor_id;sensor_type;location;lat;lon;timestamp;pressure;altitude;pressure_sealevel;temperature;humidity
49999;BME280;68071;45.062;7.356;2023-04-09T00:00:06;95410.66;;;3.52;83.49
49999;BME280;68071;45.062;7.356;2023-04-09T00:03:16;95410.88;;;3.27;86.83
49999;BME280;68071;45.062;7.356;2023-04-09T00:06:20;95409.59;;;3.92;80.11
49999;BME280;68071;45.062;7.356;2023-04-09T00:09:23;95409.19;;;4.09;79.90
49999;BME280;68071;45.062;7.356;2023-04-09T00:12:27;95410.66;;;4.27;78.38
49999;BME280;68071;45.062;7.356;2023-04-09T00:15:33;95413.78;;;4.25;76.13
49999;BME280;68071;45.062;7.356;2023-04-09T00:18:37;95406.66;;;4.20;76.98
49999;BME280;68071;45.062;7.356;2023-04-09T00:21:41;95407.22;;;4.30;75.72
49999;BME280;68071;45.062;7.356;2023-04-09T00:24:45;95408.88;;;3.95;80.75
49999;BME280;68071;45.062;7.356;2023-04-09T00:27:49;95413.06;;;4.48;74.78
49999;BME280;68071;45.062;7.356;2023-04-09T00:30:53;95416.09;;;4.23;79.63
49999;BME280;68071;45.062;7.356;2023-04-09T00:33:57;95418.81;;;4.23;78.82
49999;BME280;68071;45.062;7.356;2023-04-09T00:37:01;95401.97;;;4.01;79.17
49999;BME280;68071;45.062;7.356;2023-04-09T00:40:05;95401.16;;;4.60;75.12
49999;BME280;68071;45.062;7.356;2023-04-09T00:43:09;95402.91;;;4.91;73.61
49999;BME280;68071;45.062;7.356;2023-04-09T00:46:16;95402.34;;;4.00;81.26
49999;BME280;68071;45.062;7.356;2023-04-09T00:49:21;95408.72;;;3.52;83.58
49999;BME280;68071;45.062;7.356;2023-04-09T00:52:26;95409.00;;;4.42;78.00
49999;BME280;68071;45.062;7.356;2023-04-09T00:55:30;95403.25;;;4.90;75.13
49999;BME280;68071;45.062;7.356;2023-04-09T00:58:35;95401.34;;;3.37;83.00
49999;BME280;68071;45.062;7.356;2023-04-09T01:01:38;95407.38;;;3.10;85.86
49999;BME280;68071;45.062;7.356;2023-04-09T01:04:42;95406.66;;;2.97;86.80
49999;BME280;68071;45.062;7.356;2023-04-09T01:08:05;95411.16;;;2.90;86.96
49999;BME280;68071;45.062;7.356;2023-04-09T01:14:53;95409.00;;;4.02;80.47
49999;BME280;68071;45.062;7.356;2023-04-09T01:21:16;95412.88;;;3.82;81.80
49999;BME280;68071;45.062;7.356;2023-04-09T01:24:40;95409.13;;;4.68;75.82
49999;BME280;68071;45.062;7.356;2023-04-09T01:28:16;95405.22;;;3.87;78.91
49999;BME280;68071;45.062;7.356;2023-04-09T01:31:32;95404.19;;;4.35;76.46
49999;BME280;68071;45.062;7.356;2023-04-09T01:34:37;95405.16;;;3.16;83.81
49999;BME280;68071;45.062;7.356;2023-04-09T01:37:42;95413.97;;;2.93;86.12
49999;BME280;68071;45.062;7.356;2023-04-09T01:40:47;95423.19;;;3.53;83.00
49999;BME280;68071;45.062;7.356;2023-04-09T01:43:52;95427.19;;;3.75;82.69
49999;BME280;68071;45.062;7.356;2023-04-09T01:46:57;95422.28;;;4.20;78.46
49999;BME280;68071;45.062;7.356;2023-04-09T01:50:02;95417.22;;;3.47;84.12
49999;BME280;68071;45.062;7.356;2023-04-09T01:53:06;95422.13;;;2.17;93.08
49999;BME280;68071;45.062;7.356;2023-04-09T01:56:10;95414.59;;;3.18;86.76
49999;BME280;68071;45.062;7.356;2023-04-09T01:59:15;95406.88;;;3.56;85.61
49999;BME280;68071;45.062;7.356;2023-04-09T02:02:47;95410.03;;;3.58;84.91
49999;BME280;68071;45.062;7.356;2023-04-09T02:06:16;95403.50;;;3.11;86.33
49999;BME280;68071;45.062;7.356;2023-04-09T02:09:28;95411.50;;;3.04;87.65
49999;BME280;68071;45.062;7.356;2023-04-09T02:12:35;95411.44;;;3.16;86.66
49999;BME280;68071;45.062;7.356;2023-04-09T02:15:40;95405.97;;;3.16;88.10
49999;BME280;68071;45.062;7.356;2023-04-09T02:18:44;95408.97;;;4.18;82.63
49999;BME280;68071;45.062;7.356;2023-04-09T02:21:48;95407.56;;;4.91;76.69
49999;BME280;68071;45.062;7.356;2023-04-09T02:24:52;95409.81;;;4.62;77.72
49999;BME280;68071;45.062;7.356;2023-04-09T02:27:55;95405.31;;;4.73;77.13
49999;BME280;68071;45.062;7.356;2023-04-09T02:31:00;95418.44;;;3.85;81.93
49999;BME280;68071;45.062;7.356;2023-04-09T02:34:03;95421.38;;;3.09;87.52
49999;BME280;68071;45.062;7.356;2023-04-09T02:37:08;95418.88;;;3.36;86.99
49999;BME280;68071;45.062;7.356;2023-04-09T02:40:12;95413.56;;;3.59;84.72
49999;BME280;68071;45.062;7.356;2023-04-09T02:43:15;95420.59;;;3.24;88.16
49999;BME280;68071;45.062;7.356;2023-04-09T02:46:19;95427.28;;;3.11;86.89
49999;BME280;68071;45.062;7.356;2023-04-09T02:49:25;95422.06;;;3.22;87.08
49999;BME280;68071;45.062;7.356;2023-04-09T02:52:28;95412.63;;;4.46;79.62
49999;BME280;68071;45.062;7.356;2023-04-09T02:55:32;95417.38;;;4.49;79.51
49999;BME280;68071;45.062;7.356;2023-04-09T02:58:36;95418.28;;;3.78;82.91
49999;BME280;68071;45.062;7.356;2023-04-09T03:01:40;95412.91;;;3.30;86.72
49999;BME280;68071;45.062;7.356;2023-04-09T03:04:44;95416.53;;;3.18;88.15
49999;BME280;68071;45.062;7.356;2023-04-09T03:07:48;95413.09;;;3.37;87.24
49999;BME280;68071;45.062;7.356;2023-04-09T03:10:53;95415.00;;;3.37;88.04
49999;BME280;68071;45.062;7.356;2023-04-09T03:13:57;95418.44;;;3.33;86.97
49999;BME280;68071;45.062;7.356;2023-04-09T03:17:01;95420.47;;;3.37;86.76
49999;BME280;68071;45.062;7.356;2023-04-09T03:20:06;95417.66;;;2.85;90.01
49999;BME280;68071;45.062;7.356;2023-04-09T03:23:15;95432.03;;;4.01;83.46
49999;BME280;68071;45.062;7.356;2023-04-09T03:26:23;95429.03;;;4.89;77.31
49999;BME280;68071;45.062;7.356;2023-04-09T03:29:27;95427.22;;;4.96;76.13
49999;BME280;68071;45.062;7.356;2023-04-09T03:32:31;95427.72;;;4.59;78.46
49999;BME280;68071;45.062;7.356;2023-04-09T03:35:35;95429.91;;;3.39;86.44
49999;BME280;68071;45.062;7.356;2023-04-09T03:38:40;95425.66;;;3.42;85.35
49999;BME280;68071;45.062;7.356;2023-04-09T03:41:52;95433.53;;;3.27;88.39
49999;BME280;68071;45.062;7.356;2023-04-09T03:44:56;95444.16;;;3.48;88.29
49999;BME280;68071;45.062;7.356;2023-04-09T03:48:09;95436.44;;;3.86;86.19
49999;BME280;68071;45.062;7.356;2023-04-09T03:51:14;95441.19;;;4.68;82.34
49999;BME280;68071;45.062;7.356;2023-04-09T03:54:24;95449.25;;;4.80;80.32
49999;BME280;68071;45.062;7.356;2023-04-09T03:57:30;95446.09;;;4.00;83.70
49999;BME280;68071;45.062;7.356;2023-04-09T04:00:35;95442.50;;;3.44;86.85
49999;BME280;68071;45.062;7.356;2023-04-09T04:03:57;95448.25;;;4.49;82.47
49999;BME280;68071;45.062;7.356;2023-04-09T04:07:07;95451.47;;;3.60;85.92
49999;BME280;68071;45.062;7.356;2023-04-09T04:10:19;95453.44;;;3.12;88.06
49999;BME280;68071;45.062;7.356;2023-04-09T04:13:24;95453.78;;;3.42;90.16
49999;BME280;68071;45.062;7.356;2023-04-09T04:16:33;95450.88;;;4.62;82.88
49999;BME280;68071;45.062;7.356;2023-04-09T04:19:40;95446.56;;;4.41;82.89
49999;BME280;68071;45.062;7.356;2023-04-09T04:22:45;95457.31;;;3.78;86.50
49999;BME280;68071;45.062;7.356;2023-04-09T04:25:49;95460.56;;;3.48;88.95
49999;BME280;68071;45.062;7.356;2023-04-09T04:29:01;95459.13;;;4.06;86.22
49999;BME280;68071;45.062;7.356;2023-04-09T04:32:20;95463.03;;;3.89;87.37
49999;BME280;68071;45.062;7.356;2023-04-09T04:35:25;95462.72;;;3.75;87.90
49999;BME280;68071;45.062;7.356;2023-04-09T04:38:33;95461.91;;;3.39;89.13
49999;BME280;68071;45.062;7.356;2023-04-09T04:41:41;95471.38;;;2.52;95.46
49999;BME280;68071;45.062;7.356;2023-04-09T04:45:06;95464.59;;;2.91;94.13
49999;BME280;68071;45.062;7.356;2023-04-09T04:48:30;95466.53;;;4.26;85.39
49999;BME280;68071;45.062;7.356;2023-04-09T04:51:35;95458.66;;;4.40;83.95
49999;BME280;68071;45.062;7.356;2023-04-09T04:54:44;95469.16;;;4.58;82.44
49999;BME280;68071;45.062;7.356;2023-04-09T04:57:53;95479.69;;;4.98;80.71
49999;BME280;68071;45.062;7.356;2023-04-09T05:01:01;95477.44;;;4.42;83.25
49999;BME280;68071;45.062;7.356;2023-04-09T05:04:06;95485.47;;;4.93;81.88
49999;BME280;68071;45.062;7.356;2023-04-09T05:07:11;95484.88;;;4.61;83.91
49999;BME280;68071;45.062;7.356;2023-04-09T05:10:23;95489.44;;;3.82;88.36
49999;BME280;68071;45.062;7.356;2023-04-09T05:13:28;95491.44;;;3.49;91.25
49999;BME280;68071;45.062;7.356;2023-04-09T05:16:32;95491.03;;;3.02;94.16
49999;BME280;68071;45.062;7.356;2023-04-09T05:19:41;95492.72;;;3.07;93.43
49999;BME280;68071;45.062;7.356;2023-04-09T05:22:47;95499.19;;;3.47;89.56
49999;BME280;68071;45.062;7.356;2023-04-09T05:25:52;95498.47;;;3.34;91.46
49999;BME280;68071;45.062;7.356;2023-04-09T05:29:08;95499.78;;;3.56;94.28
49999;BME280;68071;45.062;7.356;2023-04-09T05:32:14;95501.91;;;3.47;94.38
49999;BME280;68071;45.062;7.356;2023-04-09T05:35:18;95497.22;;;3.47;94.76
49999;BME280;68071;45.062;7.356;2023-04-09T05:38:23;95503.91;;;3.50;95.30
49999;BME280;68071;45.062;7.356;2023-04-09T05:41:33;95497.41;;;3.39;97.42
49999;BME280;68071;45.062;7.356;2023-04-09T05:44:58;95505.88;;;3.50;97.80
49999;BME280;68071;45.062;7.356;2023-04-09T05:48:03;95499.94;;;3.79;96.83
49999;BME280;68071;45.062;7.356;2023-04-09T05:51:07;95500.72;;;3.96;96.03
49999;BME280;68071;45.062;7.356;2023-04-09T05:54:12;95503.66;;;4.07;95.63
49999;BME280;68071;45.062;7.356;2023-04-09T05:57:16;95507.41;;;4.34;95.18
49999;BME280;68071;45.062;7.356;2023-04-09T06:00:28;95508.13;;;4.51;96.23
49999;BME280;68071;45.062;7.356;2023-04-09T06:03:31;95517.28;;;4.59;97.42
49999;BME280;68071;45.062;7.356;2023-04-09T06:06:37;95526.16;;;4.72;97.50
49999;BME280;68071;45.062;7.356;2023-04-09T06:09:41;95523.81;;;4.93;95.20
49999;BME280;68071;45.062;7.356;2023-04-09T06:12:46;95524.22;;;5.15;92.79
49999;BME280;68071;45.062;7.356;2023-04-09T06:15:51;95535.25;;;5.65;88.52
49999;BME280;68071;45.062;7.356;2023-04-09T06:18:55;95529.56;;;5.78;88.62
49999;BME280;68071;45.062;7.356;2023-04-09T06:22:00;95540.06;;;5.95;87.75
49999;BME280;68071;45.062;7.356;2023-04-09T06:25:04;95538.50;;;6.21;85.40
49999;BME280;68071;45.062;7.356;2023-04-09T06:28:09;95547.47;;;6.45;84.02
49999;BME280;68071;45.062;7.356;2023-04-09T06:31:13;95555.47;;;6.57;83.54
49999;BME280;68071;45.062;7.356;2023-04-09T06:34:17;95557.16;;;6.65;84.18
49999;BME280;68071;45.062;7.356;2023-04-09T06:37:21;95552.41;;;6.62;82.67
49999;BME280;68071;45.062;7.356;2023-04-09T06:40:26;95546.59;;;6.68;82.30
49999;BME280;68071;45.062;7.356;2023-04-09T06:43:30;95553.72;;;6.72;81.59
49999;BME280;68071;45.062;7.356;2023-04-09T06:46:35;95556.44;;;7.03;80.82
49999;BME280;68071;45.062;7.356;2023-04-09T06:49:39;95545.81;;;7.01;82.16
49999;BME280;68071;45.062;7.356;2023-04-09T06:52:43;95541.72;;;7.60;77.88
49999;BME280;68071;45.062;7.356;2023-04-09T06:55:47;95552.31;;;7.57;77.75
49999;BME280;68071;45.062;7.356;2023-04-09T06:58:51;95552.69;;;7.56;77.79
49999;BME280;68071;45.062;7.356;2023-04-09T07:01:54;95552.31;;;7.61;80.45
49999;BME280;68071;45.062;7.356;2023-04-09T07:04:59;95552.97;;;7.88;77.34
49999;BME280;68071;45.062;7.356;2023-04-09T07:08:03;95553.88;;;8.03;75.22
49999;BME280;68071;45.062;7.356;2023-04-09T07:11:08;95562.75;;;7.82;76.63
49999;BME280;68071;45.062;7.356;2023-04-09T07:14:12;95558.00;;;8.31;74.27
49999;BME280;68071;45.062;7.356;2023-04-09T07:17:16;95549.94;;;8.05;75.07
49999;BME280;68071;45.062;7.356;2023-04-09T07:20:20;95550.19;;;8.41;73.92
49999;BME280;68071;45.062;7.356;2023-04-09T07:23:24;95552.59;;;8.46;72.49
49999;BME280;68071;45.062;7.356;2023-04-09T07:26:29;95544.09;;;8.73;72.03
49999;BME280;68071;45.062;7.356;2023-04-09T07:29:33;95549.94;;;8.57;73.89
49999;BME280;68071;45.062;7.356;2023-04-09T07:32:36;95553.88;;;8.56;73.78
49999;BME280;68071;45.062;7.356;2023-04-09T07:35:40;95550.34;;;8.62;73.76
49999;BME280;68071;45.062;7.356;2023-04-09T07:38:45;95549.25;;;8.78;72.98
49999;BME280;68071;45.062;7.356;2023-04-09T07:41:49;95551.56;;;8.69;74.18
49999;BME280;68071;45.062;7.356;2023-04-09T07:44:53;95553.00;;;9.26;71.25
49999;BME280;68071;45.062;7.356;2023-04-09T07:47:57;95556.06;;;9.06;71.21
49999;BME280;68071;45.062;7.356;2023-04-09T07:51:01;95555.28;;;9.05;71.04
49999;BME280;68071;45.062;7.356;2023-04-09T07:54:05;95561.50;;;8.84;70.47
49999;BME280;68071;45.062;7.356;2023-04-09T07:57:09;95557.66;;;9.07;69.91
49999;BME280;68071;45.062;7.356;2023-04-09T08:00:13;95553.28;;;8.95;70.81
49999;BME280;68071;45.062;7.356;2023-04-09T08:03:20;95555.78;;;9.44;66.15
49999;BME280;68071;45.062;7.356;2023-04-09T08:06:25;95555.34;;;9.27;69.93
49999;BME280;68071;45.062;7.356;2023-04-09T08:09:30;95549.53;;;9.68;69.15
49999;BME280;68071;45.062;7.356;2023-04-09T08:12:34;95551.50;;;9.61;66.83
49999;BME280;68071;45.062;7.356;2023-04-09T08:15:38;95560.53;;;9.58;67.75
49999;BME280;68071;45.062;7.356;2023-04-09T08:18:42;95555.41;;;9.52;68.13
49999;BME280;68071;45.062;7.356;2023-04-09T08:21:46;95555.81;;;9.51;68.10
49999;BME280;68071;45.062;7.356;2023-04-09T08:24:55;95561.69;;;9.49;67.71
49999;BME280;68071;45.062;7.356;2023-04-09T08:27:59;95565.69;;;9.81;66.50
49999;BME280;68071;45.062;7.356;2023-04-09T08:31:04;95561.75;;;9.75;67.43
49999;BME280;68071;45.062;7.356;2023-04-09T08:34:07;95569.66;;;10.27;64.43
49999;BME280;68071;45.062;7.356;2023-04-09T08:37:12;95568.88;;;10.16;66.66
49999;BME280;68071;45.062;7.356;2023-04-09T08:40:16;95564.13;;;9.87;67.18
49999;BME280;68071;45.062;7.356;2023-04-09T08:43:20;95562.16;;;10.13;67.71
49999;BME280;68071;45.062;7.356;2023-04-09T08:46:26;95557.81;;;10.55;70.20
49999;BME280;68071;45.062;7.356;2023-04-09T08:49:30;95564.13;;;10.23;67.38
49999;BME280;68071;45.062;7.356;2023-04-09T08:52:34;95559.00;;;10.18;67.91
49999;BME280;68071;45.062;7.356;2023-04-09T08:55:39;95568.50;;;10.21;66.91
49999;BME280;68071;45.062;7.356;2023-04-09T08:58:44;95555.47;;;9.85;67.97
49999;BME280;68071;45.062;7.356;2023-04-09T09:01:48;95564.53;;;10.29;70.98
49999;BME280;68071;45.062;7.356;2023-04-09T09:04:56;95563.75;;;10.47;67.79
49999;BME280;68071;45.062;7.356;2023-04-09T09:08:05;95560.22;;;10.46;66.67
49999;BME280;68071;45.062;7.356;2023-04-09T09:11:09;95564.94;;;10.53;67.66
49999;BME280;68071;45.062;7.356;2023-04-09T09:14:15;95556.63;;;10.56;66.21
49999;BME280;68071;45.062;7.356;2023-04-09T09:17:19;95563.34;;;10.44;65.60
49999;BME280;68071;45.062;7.356;2023-04-09T09:20:25;95561.34;;;10.78;66.83
49999;BME280;68071;45.062;7.356;2023-04-09T09:23:34;95551.44;;;10.80;65.55
49999;BME280;68071;45.062;7.356;2023-04-09T09:26:39;95552.22;;;10.77;66.45
49999;BME280;68071;45.062;7.356;2023-04-09T09:29:43;95552.94;;;11.03;64.93
49999;BME280;68071;45.062;7.356;2023-04-09T09:36:07;95541.00;;;11.24;64.07
49999;BME280;68071;45.062;7.356;2023-04-09T09:39:15;95548.88;;;11.29;65.61
49999;BME280;68071;45.062;7.356;2023-04-09T09:42:20;95542.22;;;11.12;63.22
49999;BME280;68071;45.062;7.356;2023-04-09T09:45:24;95539.34;;;11.34;63.21
49999;BME280;68071;45.062;7.356;2023-04-09T09:48:29;95549.56;;;11.44;61.93
49999;BME280;68071;45.062;7.356;2023-04-09T09:51:38;95541.75;;;11.92;60.06
49999;BME280;68071;45.062;7.356;2023-04-09T09:54:46;95538.19;;;11.95;58.35
49999;BME280;68071;45.062;7.356;2023-04-09T09:57:51;95537.38;;;12.02;60.84
49999;BME280;68071;45.062;7.356;2023-04-09T10:00:56;95531.56;;;11.82;60.31
49999;BME280;68071;45.062;7.356;2023-04-09T10:04:03;95530.97;;;11.52;63.32
49999;BME280;68071;45.062;7.356;2023-04-09T10:07:08;95537.00;;;11.29;62.01
49999;BME280;68071;45.062;7.356;2023-04-09T10:10:12;95523.28;;;11.11;62.38
49999;BME280;68071;45.062;7.356;2023-04-09T10:13:49;95529.78;;;11.49;59.93
49999;BME280;68071;45.062;7.356;2023-04-09T10:16:56;95526.44;;;11.76;61.65
49999;BME280;68071;45.062;7.356;2023-04-09T10:23:15;95511.09;;;11.64;60.51
49999;BME280;68071;45.062;7.356;2023-04-09T10:26:24;95508.16;;;11.90;59.75
49999;BME280;68071;45.062;7.356;2023-04-09T10:29:34;95496.00;;;12.25;60.22
49999;BME280;68071;45.062;7.356;2023-04-09T10:32:45;95494.09;;;12.15;59.95
49999;BME280;68071;45.062;7.356;2023-04-09T10:35:50;95491.56;;;12.32;58.91
49999;BME280;68071;45.062;7.356;2023-04-09T10:38:54;95492.00;;;11.81;59.84
49999;BME280;68071;45.062;7.356;2023-04-09T10:42:00;95482.03;;;12.36;59.55
49999;BME280;68071;45.062;7.356;2023-04-09T10:45:11;95481.06;;;12.54;59.31
49999;BME280;68071;45.062;7.356;2023-04-09T10:48:18;95476.13;;;12.34;56.46
49999;BME280;68071;45.062;7.356;2023-04-09T10:51:23;95479.38;;;12.25;57.36
49999;BME280;68071;45.062;7.356;2023-04-09T10:57:41;95467.09;;;12.96;59.09
49999;BME280;68071;45.062;7.356;2023-04-09T11:00:47;95460.66;;;13.02;55.13
49999;BME280;68071;45.062;7.356;2023-04-09T11:04:08;95459.50;;;12.31;55.40
49999;BME280;68071;45.062;7.356;2023-04-09T11:07:21;95460.28;;;12.69;56.49
49999;BME280;68071;45.062;7.356;2023-04-09T11:10:26;95453.47;;;12.43;56.67
49999;BME280;68071;45.062;7.356;2023-04-09T11:13:31;95452.78;;;12.97;56.70
49999;BME280;68071;45.062;7.356;2023-04-09T11:16:37;95443.50;;;13.39;53.07
49999;BME280;68071;45.062;7.356;2023-04-09T11:19:41;95441.97;;;14.13;54.14
49999;BME280;68071;45.062;7.356;2023-04-09T11:22:45;95438.81;;;14.34;51.28
49999;BME280;68071;45.062;7.356;2023-04-09T11:25:50;95437.34;;;14.26;49.92
49999;BME280;68071;45.062;7.356;2023-04-09T11:28:55;95434.81;;;13.64;50.76
49999;BME280;68071;45.062;7.356;2023-04-09T11:32:00;95438.38;;;14.12;52.98
49999;BME280;68071;45.062;7.356;2023-04-09T11:35:10;95433.16;;;14.18;50.03
49999;BME280;68071;45.062;7.356;2023-04-09T11:38:16;95432.91;;;14.09;49.48
49999;BME280;68071;45.062;7.356;2023-04-09T11:41:36;95423.16;;;14.20;48.84
49999;BME280;68071;45.062;7.356;2023-04-09T11:44:43;95433.25;;;13.63;51.43
49999;BME280;68071;45.062;7.356;2023-04-09T11:47:48;95435.88;;;13.98;48.12
49999;BME280;68071;45.062;7.356;2023-04-09T11:50:54;95429.19;;;12.85;51.35
49999;BME280;68071;45.062;7.356;2023-04-09T11:54:02;95431.03;;;12.96;52.03
49999;BME280;68071;45.062;7.356;2023-04-09T11:57:06;95427.44;;;13.26;51.22
49999;BME280;68071;45.062;7.356;2023-04-09T12:00:14;95423.69;;;13.09;51.74
49999;BME280;68071;45.062;7.356;2023-04-09T12:03:26;95421.03;;;13.02;51.90
49999;BME280;68071;45.062;7.356;2023-04-09T12:06:30;95420.69;;;13.00;54.75
49999;BME280;68071;45.062;7.356;2023-04-09T12:09:46;95419.25;;;13.70;49.65
49999;BME280;68071;45.062;7.356;2023-04-09T12:12:50;95412.25;;;13.86;47.86
49999;BME280;68071;45.062;7.356;2023-04-09T12:15:54;95421.94;;;14.21;47.75
49999;BME280;68071;45.062;7.356;2023-04-09T12:19:05;95409.47;;;13.62;48.77
49999;BME280;68071;45.062;7.356;2023-04-09T12:22:09;95415.81;;;13.63;49.51
49999;BME280;68071;45.062;7.356;2023-04-09T12:25:13;95407.03;;;14.12;50.63
49999;BME280;68071;45.062;7.356;2023-04-09T12:28:17;95412.88;;;14.81;46.80
49999;BME280;68071;45.062;7.356;2023-04-09T12:31:21;95409.31;;;15.18;46.48
49999;BME280;68071;45.062;7.356;2023-04-09T12:34:25;95397.69;;;15.03;44.68
49999;BME280;68071;45.062;7.356;2023-04-09T12:37:30;95405.09;;;15.09;47.47
49999;BME280;68071;45.062;7.356;2023-04-09T12:40:35;95390.59;;;14.61;47.15
49999;BME280;68071;45.062;7.356;2023-04-09T12:43:39;95394.16;;;13.77;48.86
49999;BME280;68071;45.062;7.356;2023-04-09T12:46:44;95390.03;;;13.86;49.41
49999;BME280;68071;45.062;7.356;2023-04-09T12:49:48;95388.97;;;14.24;51.86
49999;BME280;68071;45.062;7.356;2023-04-09T12:52:52;95392.50;;;14.24;48.89
49999;BME280;68071;45.062;7.356;2023-04-09T12:55:57;95374.50;;;13.88;49.01
49999;BME280;68071;45.062;7.356;2023-04-09T12:59:01;95380.25;;;14.62;48.54
49999;BME280;68071;45.062;7.356;2023-04-09T13:02:06;95371.44;;;15.04;49.34
49999;BME280;68071;45.062;7.356;2023-04-09T13:05:11;95378.22;;;15.03;47.46
49999;BME280;68071;45.062;7.356;2023-04-09T13:08:15;95376.78;;;14.94;46.05
49999;BME280;68071;45.062;7.356;2023-04-09T13:11:19;95367.75;;;14.90;45.78
49999;BME280;68071;45.062;7.356;2023-04-09T13:14:23;95370.75;;;15.16;46.63
49999;BME280;68071;45.062;7.356;2023-04-09T13:17:27;95364.25;;;15.72;45.83
49999;BME280;68071;45.062;7.356;2023-04-09T13:20:31;95355.38;;;15.45;44.75
49999;BME280;68071;45.062;7.356;2023-04-09T13:23:35;95337.78;;;15.97;42.92
49999;BME280;68071;45.062;7.356;2023-04-09T13:26:39;95337.63;;;14.69;45.07
49999;BME280;68071;45.062;7.356;2023-04-09T13:29:44;95342.38;;;14.68;46.49
49999;BME280;68071;45.062;7.356;2023-04-09T13:32:48;95341.13;;;14.32;47.83
49999;BME280;68071;45.062;7.356;2023-04-09T13:35:52;95345.41;;;13.73;50.08
49999;BME280;68071;45.062;7.356;2023-04-09T13:38:57;95339.44;;;13.74;50.86
49999;BME280;68071;45.062;7.356;2023-04-09T13:42:06;95329.13;;;14.56;48.92
49999;BME280;68071;45.062;7.356;2023-04-09T13:45:10;95326.22;;;15.49;44.77
49999;BME280;68071;45.062;7.356;2023-04-09T13:48:14;95315.25;;;15.58;45.46
49999;BME280;68071;45.062;7.356;2023-04-09T13:51:18;95313.88;;;15.50;46.85
49999;BME280;68071;45.062;7.356;2023-04-09T13:54:22;95313.91;;;15.63;46.57
49999;BME280;68071;45.062;7.356;2023-04-09T13:57:25;95306.66;;;15.82;43.79
49999;BME280;68071;45.062;7.356;2023-04-09T14:00:31;95311.16;;;15.30;45.13
49999;BME280;68071;45.062;7.356;2023-04-09T14:03:35;95309.16;;;14.97;46.07
49999;BME280;68071;45.062;7.356;2023-04-09T14:06:41;95306.78;;;14.79;47.46
49999;BME280;68071;45.062;7.356;2023-04-09T14:09:45;95303.38;;;15.71;43.93
49999;BME280;68071;45.062;7.356;2023-04-09T14:12:50;95296.63;;;16.01;44.48
49999;BME280;68071;45.062;7.356;2023-04-09T14:15:53;95295.63;;;16.08;44.17
49999;BME280;68071;45.062;7.356;2023-04-09T14:18:58;95301.84;;;15.37;46.40
49999;BME280;68071;45.062;7.356;2023-04-09T14:22:02;95291.28;;;15.61;45.19
49999;BME280;68071;45.062;7.356;2023-04-09T14:25:06;95301.84;;;15.53;45.06
49999;BME280;68071;45.062;7.356;2023-04-09T14:28:10;95291.41;;;15.41;46.14
49999;BME280;68071;45.062;7.356;2023-04-09T14:31:14;95291.38;;;16.03;44.10
49999;BME280;68071;45.062;7.356;2023-04-09T14:34:17;95286.03;;;15.80;44.36
49999;BME280;68071;45.062;7.356;2023-04-09T14:37:21;95286.66;;;16.30;44.69
49999;BME280;68071;45.062;7.356;2023-04-09T14:40:25;95282.38;;;16.93;42.11
49999;BME280;68071;45.062;7.356;2023-04-09T14:43:30;95281.34;;;15.77;46.20
49999;BME280;68071;45.062;7.356;2023-04-09T14:46:35;95273.75;;;15.77;44.12
49999;BME280;68071;45.062;7.356;2023-04-09T14:49:39;95270.53;;;16.08;44.86
49999;BME280;68071;45.062;7.356;2023-04-09T14:52:44;95265.16;;;16.30;44.58
49999;BME280;68071;45.062;7.356;2023-04-09T14:55:48;95272.88;;;16.52;44.69
49999;BME280;68071;45.062;7.356;2023-04-09T14:58:52;95271.53;;;16.44;42.62
49999;BME280;68071;45.062;7.356;2023-04-09T15:01:57;95278.59;;;16.87;43.13
49999;BME280;68071;45.062;7.356;2023-04-09T15:05:01;95273.38;;;17.63;41.20
49999;BME280;68071;45.062;7.356;2023-04-09T15:08:05;95278.16;;;16.89;43.61
49999;BME280;68071;45.062;7.356;2023-04-09T15:11:18;95270.03;;;17.91;39.40
49999;BME280;68071;45.062;7.356;2023-04-09T15:14:22;95266.31;;;17.94;40.28
49999;BME280;68071;45.062;7.356;2023-04-09T15:17:26;95270.41;;;17.45;41.01
49999;BME280;68071;45.062;7.356;2023-04-09T15:20:36;95269.91;;;16.98;41.89
49999;BME280;68071;45.062;7.356;2023-04-09T15:23:40;95273.69;;;16.78;42.37
49999;BME280;68071;45.062;7.356;2023-04-09T15:26:44;95267.06;;;17.37;40.12
49999;BME280;68071;45.062;7.356;2023-04-09T15:29:48;95269.56;;;16.83;41.77
49999;BME280;68071;45.062;7.356;2023-04-09T15:32:52;95261.31;;;16.92;41.96
49999;BME280;68071;45.062;7.356;2023-04-09T15:35:57;95260.19;;;16.09;43.79
49999;BME280;68071;45.062;7.356;2023-04-09T15:39:02;95266.97;;;16.08;44.51
49999;BME280;68071;45.062;7.356;2023-04-09T15:42:09;95263.06;;;17.25;42.19
49999;BME280;68071;45.062;7.356;2023-04-09T15:45:13;95260.19;;;17.99;41.54
49999;BME280;68071;45.062;7.356;2023-04-09T15:48:18;95271.50;;;18.71;38.40
49999;BME280;68071;45.062;7.356;2023-04-09T15:51:23;95271.56;;;18.27;39.20
49999;BME280;68071;45.062;7.356;2023-04-09T15:54:28;95269.75;;;18.33;39.42
49999;BME280;68071;45.062;7.356;2023-04-09T15:57:31;95266.22;;;17.62;40.68
49999;BME280;68071;45.062;7.356;2023-04-09T16:00:35;95268.03;;;18.89;37.96
49999;BME280;68071;45.062;7.356;2023-04-09T16:03:39;95264.03;;;19.00;37.39
49999;BME280;68071;45.062;7.356;2023-04-09T16:06:43;95270.03;;;19.30;36.11
49999;BME280;68071;45.062;7.356;2023-04-09T16:09:48;95270.94;;;18.54;38.54
49999;BME280;68071;45.062;7.356;2023-04-09T16:12:52;95261.28;;;17.66;40.19
49999;BME280;68071;45.062;7.356;2023-04-09T16:15:55;95270.72;;;18.17;38.05
49999;BME280;68071;45.062;7.356;2023-04-09T16:18:59;95266.78;;;16.96;40.51
49999;BME280;68071;45.062;7.356;2023-04-09T16:22:03;95268.97;;;17.27;41.21
49999;BME280;68071;45.062;7.356;2023-04-09T16:25:08;95277.72;;;17.64;39.52
49999;BME280;68071;45.062;7.356;2023-04-09T16:28:12;95272.25;;;17.61;39.80
49999;BME280;68071;45.062;7.356;2023-04-09T16:31:17;95274.03;;;18.03;38.50
49999;BME280;68071;45.062;7.356;2023-04-09T16:34:21;95286.59;;;18.42;38.89
49999;BME280;68071;45.062;7.356;2023-04-09T16:37:25;95286.59;;;18.96;37.95
49999;BME280;68071;45.062;7.356;2023-04-09T16:40:30;95286.81;;;17.91;39.91
49999;BME280;68071;45.062;7.356;2023-04-09T16:43:33;95281.38;;;17.74;39.44
49999;BME280;68071;45.062;7.356;2023-04-09T16:46:38;95283.09;;;17.94;38.96